Time;durP1;ratioP1;P1;durP2;ratioP2;P2;SDS_P1;SDS_P2;PMS_P1;PMS_P2;Temp;Humidity;BMP_temperature;BMP_pressure;BME280_temperature;BME280_humidity;BME280_pressure;Samples;Min_cycle;Max_cycle;Signal;HPM_P1;HPM_P2
2022/04/03 00:01:04;;;;;;;;;;;18.80;55.40;;;;;;5003368;28;1894;-67
2022/04/03 00:03:29;;;;;;;;;;;18.80;55.40;;;;;;4992859;28;1242;-67
2022/04/03 00:05:55;;;;;;;;;;;18.70;55.40;;;;;;4991390;28;1200;-68
2022/04/03 00:08:20;;;;;;;;;;;18.70;55.40;;;;;;4993211;28;1276;-69
2022/04/03 00:10:46;;;;;;;;;;;18.80;55.50;;;;;;4993094;28;1131;-67
2022/04/03 00:13:11;;;;;;;;;;;18.70;55.40;;;;;;4992965;28;807;-68
2022/04/03 00:15:41;;;;;;;;;;;18.80;55.50;;;;;;4992727;28;1145;-68
2022/04/03 00:18:09;;;;;;;;;;;18.80;55.50;;;;;;4992859;28;1272;-67
2022/04/03 00:20:35;;;;;;;;;;;18.80;55.50;;;;;;4992791;28;1894;-68
2022/04/03 00:23:01;;;;;;;;;;;18.80;55.50;;;;;;4993127;28;793;-68
2022/04/03 00:25:26;;;;;;;;;;;18.80;55.50;;;;;;4991359;28;1295;-72
2022/04/03 00:27:52;;;;;;;;;;;18.80;55.50;;;;;;4992932;28;1194;-67
2022/04/03 00:30:17;;;;;;;;;;;18.80;55.50;;;;;;4992507;28;1015;-68
2022/04/03 00:32:42;;;;;;;;;;;18.70;55.50;;;;;;4992920;28;1053;-68
2022/04/03 00:35:08;;;;;;;;;;;18.70;55.50;;;;;;4992662;28;1065;-68
2022/04/03 00:37:33;;;;;;;;;;;18.70;55.50;;;;;;4992654;28;1215;-68
2022/04/03 00:39:59;;;;;;;;;;;18.70;55.50;;;;;;4991343;28;1977;-68
2022/04/03 00:42:24;;;;;;;;;;;18.70;55.50;;;;;;4992909;28;1049;-68
2022/04/03 00:44:50;;;;;;;;;;;18.70;55.60;;;;;;4991585;28;1215;-68
2022/04/03 00:47:16;;;;;;;;;;;18.70;55.60;;;;;;4992275;28;951;-67
2022/04/03 00:49:41;;;;;;;;;;;18.70;55.60;;;;;;4991453;28;1210;-69
2022/04/03 00:52:08;;;;;;;;;;;18.70;55.60;;;;;;4992560;28;1061;-67
2022/04/03 00:54:34;;;;;;;;;;;18.70;56.20;;;;;;4991870;28;871;-68
2022/04/03 00:56:59;;;;;;;;;;;18.70;55.60;;;;;;4992205;28;1058;-69
2022/04/03 00:59:25;;;;;;;;;;;18.70;55.60;;;;;;4991678;28;1910;-69
2022/04/03 01:01:50;;;;;;;;;;;18.70;55.60;;;;;;4991071;28;939;-69
2022/04/03 01:04:16;;;;;;;;;;;18.70;55.60;;;;;;4991636;28;915;-69
2022/04/03 01:06:41;;;;;;;;;;;18.70;55.60;;;;;;4994603;28;757;-69
2022/04/03 01:09:06;;;;;;;;;;;18.70;55.60;;;;;;4995037;28;1196;-69
2022/04/03 01:11:32;;;;;;;;;;;18.70;55.70;;;;;;4999575;28;1159;-69
2022/04/03 01:13:57;;;;;;;;;;;18.70;55.70;;;;;;4996612;28;1006;-69
2022/04/03 01:16:23;;;;;;;;;;;18.70;55.60;;;;;;4995522;28;923;-69
2022/04/03 01:18:49;;;;;;;;;;;18.70;55.60;;;;;;4996222;28;1281;-69
2022/04/03 01:21:16;;;;;;;;;;;18.70;55.70;;;;;;4994965;28;1956;-69
2022/04/03 01:23:41;;;;;;;;;;;18.60;55.60;;;;;;4994871;28;906;-69
2022/04/03 01:26:07;;;;;;;;;;;18.70;55.70;;;;;;4994430;28;895;-69
2022/04/03 01:28:32;;;;;;;;;;;18.70;55.70;;;;;;4994861;28;1286;-69
2022/04/03 01:30:58;;;;;;;;;;;18.70;55.70;;;;;;4995978;28;915;-69
2022/04/03 01:33:23;;;;;;;;;;;18.70;55.70;;;;;;4994276;28;884;-69
2022/04/03 01:35:48;;;;;;;;;;;18.70;55.70;;;;;;4995524;28;1163;-69
2022/04/03 01:38:14;;;;;;;;;;;18.70;55.70;;;;;;4994215;28;1216;-69
2022/04/03 01:40:39;;;;;;;;;;;18.70;55.60;;;;;;4978077;28;1907;-69
2022/04/03 01:43:06;;;;;;;;;;;18.70;55.70;;;;;;4994757;28;1086;-69
2022/04/03 01:45:32;;;;;;;;;;;18.70;55.70;;;;;;4994032;28;1172;-68
2022/04/03 01:47:57;;;;;;;;;;;18.70;55.70;;;;;;4995322;28;1311;-70
2022/04/03 01:50:23;;;;;;;;;;;18.70;55.70;;;;;;4995496;28;816;-69
2022/04/03 01:52:48;;;;;;;;;;;18.70;55.70;;;;;;4994439;28;827;-68
2022/04/03 01:55:14;;;;;;;;;;;18.70;55.70;;;;;;5003394;28;1217;-68
2022/04/03 01:57:39;;;;;;;;;;;18.70;55.70;;;;;;5000965;28;1281;-69
2022/04/03 02:00:09;;;;;;;;;;;18.70;55.70;;;;;;5005218;28;1906;-68
2022/04/03 02:02:35;;;;;;;;;;;18.70;55.70;;;;;;5005427;28;1205;-67
2022/04/03 02:05:01;;;;;;;;;;;18.70;55.70;;;;;;5004214;28;1201;-69
2022/04/03 02:07:29;;;;;;;;;;;18.60;55.60;;;;;;5004490;28;1228;-69
2022/04/03 02:09:54;;;;;;;;;;;18.60;55.60;;;;;;4987970;28;1234;-68
2022/04/03 02:12:19;;;;;;;;;;;18.60;55.60;;;;;;5003685;28;1213;-70
2022/04/03 02:14:45;;;;;;;;;;;18.60;55.70;;;;;;5005153;28;1209;-69
2022/04/03 02:17:10;;;;;;;;;;;18.60;55.60;;;;;;5003532;28;1173;-69
2022/04/03 02:19:36;;;;;;;;;;;18.60;55.60;;;;;;5006020;28;2250;-69
2022/04/03 02:22:01;;;;;;;;;;;18.60;55.70;;;;;;5003434;28;1185;-67
2022/04/03 02:24:27;;;;;;;;;;;18.60;55.70;;;;;;5004569;28;1208;-68
2022/04/03 02:26:52;;;;;;;;;;;18.60;55.70;;;;;;4987491;28;1292;-69
2022/04/03 02:29:17;;;;;;;;;;;18.60;55.70;;;;;;5003040;28;1284;-68
2022/04/03 02:31:43;;;;;;;;;;;18.60;55.70;;;;;;5003490;28;1267;-67
2022/04/03 02:34:08;;;;;;;;;;;18.60;55.70;;;;;;4987166;28;1268;-68
2022/04/03 02:36:34;;;;;;;;;;;18.60;55.70;;;;;;5002783;28;1240;-68
2022/04/03 02:38:59;;;;;;;;;;;18.60;55.70;;;;;;4998673;28;1213;-67
2022/04/03 02:41:25;;;;;;;;;;;18.60;55.70;;;;;;5002641;28;1918;-67
2022/04/03 02:43:51;;;;;;;;;;;18.60;55.70;;;;;;5004207;28;1328;-67
2022/04/03 02:46:16;;;;;;;;;;;18.60;55.70;;;;;;4985392;28;1276;-68
2022/04/03 02:48:42;;;;;;;;;;;18.60;55.80;;;;;;5005918;28;1296;-66
2022/04/03 02:51:07;;;;;;;;;;;18.60;55.80;;;;;;5014441;28;698;-65
2022/04/03 02:53:32;;;;;;;;;;;18.60;55.80;;;;;;5013042;28;685;-67
2022/04/03 02:55:58;;;;;;;;;;;18.60;55.80;;;;;;5013505;28;699;-67
2022/04/03 02:58:23;;;;;;;;;;;18.60;55.80;;;;;;5012981;28;1196;-67
2022/04/03 03:00:49;;;;;;;;;;;18.60;55.80;;;;;;5013564;28;2025;-68
2022/04/03 03:03:15;;;;;;;;;;;18.60;55.80;;;;;;5013658;28;883;-68
2022/04/03 03:05:41;;;;;;;;;;;18.60;55.80;;;;;;5013452;28;896;-67
2022/04/03 03:08:07;;;;;;;;;;;18.60;55.80;;;;;;5013999;28;1208;-67
2022/04/03 03:10:32;;;;;;;;;;;18.60;55.80;;;;;;5012337;28;1361;-67
2022/04/03 03:12:57;;;;;;;;;;;18.60;55.80;;;;;;4994455;28;1180;-67
2022/04/03 03:15:23;;;;;;;;;;;18.60;55.80;;;;;;4993997;28;844;-68
2022/04/03 03:17:49;;;;;;;;;;;18.60;55.80;;;;;;4993809;28;1229;-68
2022/04/03 03:20:14;;;;;;;;;;;18.60;55.80;;;;;;4993940;28;2022;-67
2022/04/03 03:22:40;;;;;;;;;;;18.60;55.80;;;;;;4992783;28;894;-67
2022/04/03 03:25:06;;;;;;;;;;;18.60;55.80;;;;;;4993766;28;804;-68
2022/04/03 03:27:32;;;;;;;;;;;18.60;55.80;;;;;;4993383;28;1213;-68
2022/04/03 03:29:58;;;;;;;;;;;18.60;55.90;;;;;;4993796;28;1026;-67
2022/04/03 03:32:26;;;;;;;;;;;18.60;55.80;;;;;;4993695;28;899;-66
2022/04/03 03:34:52;;;;;;;;;;;18.60;55.90;;;;;;4994050;28;851;-66
2022/04/03 03:37:17;;;;;;;;;;;18.50;55.90;;;;;;5001210;28;1183;-66
2022/04/03 03:39:43;;;;;;;;;;;18.50;55.90;;;;;;4993606;28;1915;-66
2022/04/03 03:42:08;;;;;;;;;;;18.50;55.90;;;;;;4993322;28;805;-66
2022/04/03 03:44:34;;;;;;;;;;;18.50;55.90;;;;;;4992277;28;1160;-66
2022/04/03 03:46:59;;;;;;;;;;;18.50;55.90;;;;;;4992981;28;847;-67
2022/04/03 03:49:26;;;;;;;;;;;18.50;55.90;;;;;;4992178;28;1227;-68
2022/04/03 03:51:51;;;;;;;;;;;18.50;55.90;;;;;;4993367;28;855;-67
2022/04/03 03:54:17;;;;;;;;;;;18.50;55.90;;;;;;4993510;28;1077;-68
2022/04/03 03:56:42;;;;;;;;;;;18.50;55.90;;;;;;4993173;28;899;-67
2022/04/03 03:59:08;;;;;;;;;;;18.50;55.90;;;;;;4993141;28;1981;-68
2022/04/03 04:01:34;;;;;;;;;;;18.50;55.90;;;;;;4993203;28;882;-68
2022/04/03 04:04:00;;;;;;;;;;;18.50;55.90;;;;;;4993397;28;828;-68
2022/04/03 04:06:25;;;;;;;;;;;18.50;56.50;;;;;;4992812;28;970;-68
2022/04/03 04:08:51;;;;;;;;;;;18.50;55.90;;;;;;4993303;28;1175;-67
2022/04/03 04:11:17;;;;;;;;;;;18.50;56.00;;;;;;4992996;28;1156;-67
2022/04/03 04:13:42;;;;;;;;;;;18.50;56.00;;;;;;4993589;28;863;-67
2022/04/03 04:16:10;;;;;;;;;;;18.50;56.00;;;;;;4991100;28;1169;-67
2022/04/03 04:18:36;;;;;;;;;;;18.50;56.00;;;;;;4993226;28;1317;-68
2022/04/03 04:21:02;;;;;;;;;;;18.50;56.00;;;;;;4993098;28;1977;-68
2022/04/03 04:23:28;;;;;;;;;;;18.50;56.00;;;;;;4993256;28;816;-68
2022/04/03 04:25:53;;;;;;;;;;;18.50;56.00;;;;;;4992800;28;823;-67
2022/04/03 04:28:19;;;;;;;;;;;18.50;56.00;;;;;;4993012;28;1280;-68
2022/04/03 04:30:45;;;;;;;;;;;18.50;56.00;;;;;;4992849;28;873;-68
2022/04/03 04:33:10;;;;;;;;;;;18.50;56.00;;;;;;4993154;28;955;-67
2022/04/03 04:35:35;;;;;;;;;;;18.50;56.00;;;;;;4992841;28;1045;-65
2022/04/03 04:38:03;;;;;;;;;;;18.50;56.00;;;;;;4991449;28;1260;-66
2022/04/03 04:40:29;;;;;;;;;;;18.50;56.00;;;;;;4993647;28;1915;-66
2022/04/03 04:42:55;;;;;;;;;;;18.50;56.00;;;;;;4995369;28;804;-67
2022/04/03 04:45:21;;;;;;;;;;;18.50;56.00;;;;;;4995645;28;1207;-66
2022/04/03 04:47:48;;;;;;;;;;;18.50;55.90;;;;;;4996489;28;1189;-65
2022/04/03 04:50:17;;;;;;;;;;;18.60;55.90;;;;;;4996909;28;891;-67
2022/04/03 04:52:42;;;;;;;;;;;18.60;55.80;;;;;;4996883;28;902;-67
2022/04/03 04:55:09;;;;;;;;;;;18.60;55.70;;;;;;4995514;28;844;-67
2022/04/03 04:57:35;;;;;;;;;;;18.60;55.60;;;;;;4995759;28;1201;-67
2022/04/03 05:00:00;;;;;;;;;;;18.70;55.50;;;;;;4995599;28;1972;-66
2022/04/03 05:02:26;;;;;;;;;;;18.70;55.40;;;;;;4996543;28;1073;-67
2022/04/03 05:04:52;;;;;;;;;;;18.70;55.30;;;;;;4996149;28;800;-68
2022/04/03 05:07:17;;;;;;;;;;;18.70;55.20;;;;;;4996050;28;897;-67
2022/04/03 05:09:43;;;;;;;;;;;18.80;55.20;;;;;;4996522;28;1212;-67
2022/04/03 05:12:09;;;;;;;;;;;18.90;55.10;;;;;;4995870;28;1140;-67
2022/04/03 05:14:34;;;;;;;;;;;18.90;55.00;;;;;;4995926;28;764;-68
2022/04/03 05:17:00;;;;;;;;;;;18.90;54.90;;;;;;4996010;28;711;-68
2022/04/03 05:19:26;;;;;;;;;;;18.90;54.90;;;;;;4996252;28;1953;-66
2022/04/03 05:21:52;;;;;;;;;;;18.90;54.80;;;;;;4996333;28;875;-66
2022/04/03 05:24:18;;;;;;;;;;;18.90;54.80;;;;;;4996210;28;876;-66
2022/04/03 05:26:43;;;;;;;;;;;19.00;54.80;;;;;;4995832;28;728;-68
2022/04/03 05:29:08;;;;;;;;;;;19.00;54.70;;;;;;4996171;28;1164;-68
2022/04/03 05:31:34;;;;;;;;;;;19.00;54.70;;;;;;4996110;28;793;-68
2022/04/03 05:33:59;;;;;;;;;;;19.00;54.60;;;;;;4995108;28;931;-68
2022/04/03 05:36:25;;;;;;;;;;;19.00;54.60;;;;;;4995282;28;1120;-68
2022/04/03 05:38:50;;;;;;;;;;;19.00;54.60;;;;;;4995645;28;1310;-67
2022/04/03 05:41:15;;;;;;;;;;;19.10;54.60;;;;;;4995762;28;1959;-67
2022/04/03 05:43:42;;;;;;;;;;;19.10;54.60;;;;;;4994691;28;916;-68
2022/04/03 05:46:07;;;;;;;;;;;19.10;54.50;;;;;;4995046;28;1171;-69
2022/04/03 05:48:32;;;;;;;;;;;19.10;54.50;;;;;;4995934;28;1216;-68
2022/04/03 05:50:58;;;;;;;;;;;19.10;54.50;;;;;;4993637;28;1026;-68
2022/04/03 05:53:23;;;;;;;;;;;19.10;54.40;;;;;;4977810;28;1651;-69
2022/04/03 05:55:49;;;;;;;;;;;19.10;54.40;;;;;;4993912;28;2026;-69
2022/04/03 05:58:14;;;;;;;;;;;19.10;54.40;;;;;;4995064;28;1356;-67
2022/04/03 06:00:40;;;;;;;;;;;19.10;54.40;;;;;;4995436;28;1911;-67
2022/04/03 06:03:05;;;;;;;;;;;19.10;54.30;;;;;;4995782;28;852;-68
2022/04/03 06:05:32;;;;;;;;;;;19.10;54.30;;;;;;5010129;28;792;-68
2022/04/03 06:07:57;;;;;;;;;;;19.10;54.30;;;;;;4993398;28;2241;-68
2022/04/03 06:10:23;;;;;;;;;;;19.10;54.30;;;;;;4995053;28;1170;-69
2022/04/03 06:12:59;;;;;;;;;;;19.10;54.30;;;;;;4995332;28;1081;-69
2022/04/03 06:15:28;;;;;;;;;;;19.20;54.30;;;;;;4995118;28;957;-68
2022/04/03 06:17:54;;;;;;;;;;;19.10;54.30;;;;;;4994329;28;1227;-68
2022/04/03 06:20:19;;;;;;;;;;;19.20;54.30;;;;;;5001376;28;1952;-68
2022/04/03 06:22:45;;;;;;;;;;;19.20;54.30;;;;;;5001987;28;1159;-68
2022/04/03 06:25:11;;;;;;;;;;;19.20;54.30;;;;;;4995213;28;1029;-68
2022/04/03 06:27:36;;;;;;;;;;;19.20;54.90;;;;;;5009393;28;1294;-69
2022/04/03 06:30:02;;;;;;;;;;;19.20;54.20;;;;;;4994816;28;867;-69
2022/04/03 06:32:29;;;;;;;;;;;19.20;54.30;;;;;;5002699;28;2154;-67
2022/04/03 06:34:54;;;;;;;;;;;19.20;54.30;;;;;;4988232;28;1071;-67
2022/04/03 06:37:20;;;;;;;;;;;19.20;54.20;;;;;;4992077;28;2090;-67
2022/04/03 06:39:45;;;;;;;;;;;19.20;54.20;;;;;;5005716;28;2031;-68
2022/04/03 06:42:11;;;;;;;;;;;19.20;54.80;;;;;;4993661;28;1147;-67
2022/04/03 06:44:36;;;;;;;;;;;19.20;54.20;;;;;;4993632;28;1164;-66
2022/04/03 06:47:01;;;;;;;;;;;19.20;54.20;;;;;;4992243;28;1268;-66
2022/04/03 06:49:30;;;;;;;;;;;19.20;54.20;;;;;;4992599;28;1256;-67
2022/04/03 06:51:55;;;;;;;;;;;19.20;54.20;;;;;;4992947;28;982;-65
2022/04/03 06:54:21;;;;;;;;;;;19.20;54.10;;;;;;4994182;28;706;-69
2022/04/03 06:56:46;;;;;;;;;;;19.20;54.70;;;;;;4992845;28;752;-68
2022/04/03 06:59:12;;;;;;;;;;;19.20;54.10;;;;;;4993234;28;1189;-67
2022/04/03 07:01:37;;;;;;;;;;;19.20;54.20;;;;;;4992380;28;2244;-68
2022/04/03 07:04:03;;;;;;;;;;;19.20;54.10;;;;;;4984431;28;1151;-65
2022/04/03 07:06:28;;;;;;;;;;;19.20;54.10;;;;;;4994001;28;1115;-67
2022/04/03 07:08:53;;;;;;;;;;;19.20;54.10;;;;;;4993372;28;1253;-68
2022/04/03 07:11:19;;;;;;;;;;;19.20;54.10;;;;;;5006929;28;1716;-68
2022/04/03 07:13:44;;;;;;;;;;;19.20;54.10;;;;;;4992800;28;1310;-66
2022/04/03 07:16:10;;;;;;;;;;;19.20;54.10;;;;;;4993428;28;780;-66
2022/04/03 07:18:35;;;;;;;;;;;19.20;54.10;;;;;;4993043;28;1672;-68
2022/04/03 07:21:01;;;;;;;;;;;19.30;54.10;;;;;;4992719;28;1965;-68
2022/04/03 07:23:26;;;;;;;;;;;19.40;54.00;;;;;;4993992;28;1131;-69
2022/04/03 07:25:52;;;;;;;;;;;19.40;53.90;;;;;;4993405;28;773;-68
2022/04/03 07:28:17;;;;;;;;;;;19.50;53.80;;;;;;4992789;28;1232;-68
2022/04/03 07:30:43;;;;;;;;;;;19.60;53.70;;;;;;4992366;28;926;-69
2022/04/03 07:33:08;;;;;;;;;;;19.70;53.50;;;;;;4994109;28;903;-68
2022/04/03 07:35:34;;;;;;;;;;;19.80;53.30;;;;;;4993433;28;919;-67
2022/04/03 07:37:59;;;;;;;;;;;19.90;53.10;;;;;;4993379;28;1396;-65
2022/04/03 07:40:25;;;;;;;;;;;20.10;52.90;;;;;;4993613;28;1969;-65
2022/04/03 07:42:52;;;;;;;;;;;20.20;52.70;;;;;;4992203;28;824;-66
2022/04/03 07:45:19;;;;;;;;;;;20.30;52.40;;;;;;4993557;28;1188;-65
2022/04/03 07:47:45;;;;;;;;;;;20.40;52.20;;;;;;4993177;28;1306;-66
2022/04/03 07:50:11;;;;;;;;;;;20.50;52.00;;;;;;4992598;28;933;-66
2022/04/03 07:52:36;;;;;;;;;;;20.60;51.70;;;;;;4993349;28;776;-66
2022/04/03 07:55:02;;;;;;;;;;;20.70;51.60;;;;;;4993703;28;890;-66
2022/04/03 07:57:27;;;;;;;;;;;20.70;51.30;;;;;;4992953;28;1085;-66
2022/04/03 07:59:52;;;;;;;;;;;20.80;51.20;;;;;;4992425;28;1969;-67
2022/04/03 08:02:18;;;;;;;;;;;20.90;51.00;;;;;;4991833;28;1018;-66
2022/04/03 08:04:43;;;;;;;;;;;21.00;50.90;;;;;;4993292;28;1113;-67
2022/04/03 08:07:09;;;;;;;;;;;21.00;50.80;;;;;;4992840;28;688;-67
2022/04/03 08:09:34;;;;;;;;;;;21.00;50.70;;;;;;4991708;28;1186;-66
2022/04/03 08:11:59;;;;;;;;;;;21.00;50.70;;;;;;4993213;28;993;-67
2022/04/03 08:14:26;;;;;;;;;;;21.10;50.70;;;;;;4992787;28;899;-67
2022/04/03 08:16:52;;;;;;;;;;;21.10;50.60;;;;;;4992790;28;923;-67
2022/04/03 08:19:17;;;;;;;;;;;21.10;50.60;;;;;;4970595;28;1982;-67
2022/04/03 08:21:43;;;;;;;;;;;21.10;50.70;;;;;;4971795;28;947;-67
2022/04/03 08:24:08;;;;;;;;;;;21.10;50.70;;;;;;4981049;28;1643;-67
2022/04/03 08:26:34;;;;;;;;;;;21.10;50.80;;;;;;4991613;28;891;-67
2022/04/03 08:28:59;;;;;;;;;;;21.10;50.80;;;;;;4992202;28;1245;-67
2022/04/03 08:31:24;;;;;;;;;;;21.10;50.80;;;;;;4991889;28;892;-67
2022/04/03 08:33:50;;;;;;;;;;;21.10;50.70;;;;;;4974592;28;844;-67
2022/04/03 08:36:16;;;;;;;;;;;21.10;50.70;;;;;;4974189;28;1164;-67
2022/04/03 08:38:42;;;;;;;;;;;21.10;50.80;;;;;;4991725;28;1316;-67
2022/04/03 08:41:08;;;;;;;;;;;21.10;50.80;;;;;;4991741;28;1968;-66
2022/04/03 08:43:33;;;;;;;;;;;21.10;50.80;;;;;;4992220;28;1108;-67
2022/04/03 08:46:00;;;;;;;;;;;21.00;50.70;;;;;;4990383;28;973;-67
2022/04/03 08:48:25;;;;;;;;;;;21.10;50.80;;;;;;4990752;28;1268;-67
2022/04/03 08:50:51;;;;;;;;;;;21.00;50.80;;;;;;4990620;28;1094;-67
2022/04/03 08:53:17;;;;;;;;;;;21.00;50.80;;;;;;4990607;28;692;-67
2022/04/03 08:55:42;;;;;;;;;;;21.00;50.90;;;;;;4990134;28;1520;-67
2022/04/03 08:58:08;;;;;;;;;;;21.00;50.90;;;;;;4990830;28;1317;-67
2022/04/03 09:00:33;;;;;;;;;;;21.00;51.00;;;;;;4991897;28;1957;-67
2022/04/03 09:02:59;;;;;;;;;;;20.90;51.00;;;;;;4991955;28;891;-67
2022/04/03 09:05:33;;;;;;;;;;;20.90;51.10;;;;;;4991886;28;800;-67
2022/04/03 09:08:00;;;;;;;;;;;20.90;51.10;;;;;;4990019;28;1350;-68
2022/04/03 09:10:25;;;;;;;;;;;20.90;51.20;;;;;;4991732;28;891;-67
2022/04/03 09:12:51;;;;;;;;;;;20.90;51.30;;;;;;4992278;28;1552;-67
2022/04/03 09:15:17;;;;;;;;;;;20.80;51.30;;;;;;4991881;28;765;-67
2022/04/03 09:17:44;;;;;;;;;;;20.80;51.40;;;;;;4990005;28;1279;-68
2022/04/03 09:20:12;;;;;;;;;;;20.80;51.40;;;;;;4981625;28;2191;-68
2022/04/03 09:22:38;;;;;;;;;;;20.80;51.50;;;;;;4988229;28;981;-67
2022/04/03 09:25:07;;;;;;;;;;;20.70;51.50;;;;;;4990403;28;819;-67
2022/04/03 09:27:34;;;;;;;;;;;20.70;51.50;;;;;;4994394;28;1077;-68
2022/04/03 09:30:03;;;;;;;;;;;20.70;51.60;;;;;;4994159;28;827;-67
2022/04/03 09:32:29;;;;;;;;;;;20.70;51.60;;;;;;4994362;28;2189;-68
2022/04/03 09:34:57;;;;;;;;;;;20.70;51.70;;;;;;4994594;28;2101;-67
2022/04/03 09:37:23;;;;;;;;;;;20.70;51.70;;;;;;4997273;28;1938;-66
2022/04/03 09:39:48;;;;;;;;;;;20.70;51.80;;;;;;5003229;28;1914;-66
2022/04/03 09:42:15;;;;;;;;;;;20.60;51.80;;;;;;5002155;28;1184;-67
2022/04/03 09:44:44;;;;;;;;;;;20.60;51.80;;;;;;5002188;28;1264;-68
2022/04/03 09:47:13;;;;;;;;;;;20.60;51.90;;;;;;5001748;28;1236;-67
2022/04/03 09:49:38;;;;;;;;;;;20.60;51.90;;;;;;5004301;28;1895;-67
2022/04/03 09:52:04;;;;;;;;;;;20.60;51.90;;;;;;4998254;28;1161;-66
2022/04/03 09:54:29;;;;;;;;;;;20.50;51.90;;;;;;5004084;28;1161;-68
2022/04/03 09:56:55;;;;;;;;;;;20.50;52.00;;;;;;5003057;28;1264;-69
2022/04/03 09:59:21;;;;;;;;;;;20.50;52.00;;;;;;5002051;28;1966;-69
2022/04/03 10:01:46;;;;;;;;;;;20.50;52.10;;;;;;5003701;28;1220;-69
2022/04/03 10:04:15;;;;;;;;;;;20.50;52.10;;;;;;4985196;28;1443;-71
2022/04/03 10:06:41;;;;;;;;;;;20.50;52.10;;;;;;5002549;28;1712;-67
2022/04/03 10:09:07;;;;;;;;;;;20.50;52.20;;;;;;5003099;28;1484;-67
2022/04/03 10:11:33;;;;;;;;;;;20.50;52.20;;;;;;4985707;28;1217;-67
2022/04/03 10:13:58;;;;;;;;;;;20.40;52.30;;;;;;5011026;28;1229;-67
2022/04/03 10:16:24;;;;;;;;;;;20.40;52.30;;;;;;5013089;28;895;-70
2022/04/03 10:18:49;;;;;;;;;;;20.40;52.30;;;;;;5013481;28;1146;-71
2022/04/03 10:21:33;;;;;;;;;;;20.40;52.30;;;;;;5013489;28;2010;-71
2022/04/03 10:24:01;;;;;;;;;;;20.40;52.40;;;;;;5014390;28;1058;-68
2022/04/03 10:26:26;;;;;;;;;;;20.40;52.40;;;;;;5014314;28;804;-68
2022/04/03 10:28:54;;;;;;;;;;;20.40;52.40;;;;;;5013376;28;1193;-69
2022/04/03 10:31:19;;;;;;;;;;;20.40;52.50;;;;;;5013347;28;1013;-69
2022/04/03 10:33:48;;;;;;;;;;;20.30;52.40;;;;;;5014416;28;843;-69
2022/04/03 10:36:13;;;;;;;;;;;20.30;52.50;;;;;;5006446;28;2177;-67
2022/04/03 10:38:42;;;;;;;;;;;20.30;52.50;;;;;;4993310;28;2297;-69
2022/04/03 10:41:07;;;;;;;;;;;20.30;52.50;;;;;;4977190;28;1899;-70
2022/04/03 10:43:36;;;;;;;;;;;20.30;52.60;;;;;;4993437;28;1492;-69
2022/04/03 10:46:02;;;;;;;;;;;20.30;52.60;;;;;;4992851;28;1116;-70
2022/04/03 10:48:28;;;;;;;;;;;20.30;52.60;;;;;;4994402;28;1218;-70
2022/04/03 10:50:58;;;;;;;;;;;20.30;52.70;;;;;;4976717;28;1346;-70
2022/04/03 10:53:25;;;;;;;;;;;20.30;52.70;;;;;;4977085;28;844;-69
2022/04/03 10:55:56;;;;;;;;;;;20.30;52.70;;;;;;4993843;28;808;-69
2022/04/03 10:58:22;;;;;;;;;;;20.20;52.70;;;;;;4997390;28;1895;-69
2022/04/03 11:00:47;;;;;;;;;;;20.20;52.70;;;;;;4999936;28;2193;-69
2022/04/03 11:03:12;;;;;;;;;;;20.20;52.70;;;;;;5000734;28;1921;-70
2022/04/03 11:05:38;;;;;;;;;;;20.20;52.80;;;;;;4996304;28;2110;-70
2022/04/03 11:08:03;;;;;;;;;;;20.20;52.80;;;;;;4994040;28;1309;-69
2022/04/03 11:10:54;;;;;;;;;;;20.20;52.90;;;;;;4993609;28;1967;-70
2022/04/03 11:13:22;;;;;;;;;;;20.20;52.90;;;;;;4992872;28;1907;-70
2022/04/03 11:15:51;;;;;;;;;;;20.20;52.90;;;;;;4993537;28;1346;-70
2022/04/03 11:18:26;;;;;;;;;;;20.20;52.90;;;;;;4991755;28;2145;-70
2022/04/03 11:21:11;;;;;;;;;;;20.20;52.80;;;;;;4992194;28;1902;-70
2022/04/03 11:23:37;;;;;;;;;;;20.20;52.80;;;;;;4992792;28;2090;-69
2022/04/03 11:26:03;;;;;;;;;;;20.30;52.80;;;;;;4993419;28;1138;-70
2022/04/03 11:28:28;;;;;;;;;;;20.30;52.70;;;;;;4993895;28;1317;-71
2022/04/03 11:30:54;;;;;;;;;;;20.30;52.70;;;;;;4993664;28;1081;-71
2022/04/03 11:33:19;;;;;;;;;;;20.30;52.60;;;;;;4993692;28;939;-70
2022/04/03 11:35:46;;;;;;;;;;;20.30;52.60;;;;;;4992107;28;1080;-70
2022/04/03 11:38:11;;;;;;;;;;;20.30;52.60;;;;;;4994003;28;1215;-71
2022/04/03 11:40:38;;;;;;;;;;;20.30;52.60;;;;;;5001975;28;1969;-69
2022/04/03 11:43:11;;;;;;;;;;;20.30;52.60;;;;;;5002484;28;1283;-69
2022/04/03 11:45:36;;;;;;;;;;;20.30;52.60;;;;;;5003113;28;1284;-68
2022/04/03 11:48:34;;;;;;;;;;;20.30;52.70;;;;;;5000997;28;1257;-70
2022/04/03 11:51:03;;;;;;;;;;;20.30;52.70;;;;;;4980289;28;1459;-69
2022/04/03 11:53:28;;;;;;;;;;;20.30;52.70;;;;;;4984199;28;1213;-69
2022/04/03 11:55:55;;;;;;;;;;;20.30;52.80;;;;;;4999274;28;1271;-67
2022/04/03 11:58:29;;;;;;;;;;;20.20;52.80;;;;;;4987070;28;1279;-69
2022/04/03 12:00:55;;;;;;;;;;;20.20;52.80;;;;;;4995221;28;1898;-69
2022/04/03 12:03:27;;;;;;;;;;;20.20;52.80;;;;;;5011960;28;1326;-69
2022/04/03 12:06:08;;;;;;;;;;;20.20;52.80;;;;;;4995082;28;1185;-69
2022/04/03 12:08:38;;;;;;;;;;;20.20;52.80;;;;;;5011550;28;1178;-69
2022/04/03 12:11:14;;;;;;;;;;;20.20;52.80;;;;;;5008161;28;1139;-69
2022/04/03 12:13:39;;;;;;;;;;;20.20;52.80;;;;;;4993307;28;816;-69
2022/04/03 12:16:06;;;;;;;;;;;20.20;52.80;;;;;;4991840;28;781;-69
2022/04/03 12:18:45;;;;;;;;;;;20.20;52.90;;;;;;4993356;28;1248;-70
2022/04/03 12:21:11;;;;;;;;;;;20.20;52.90;;;;;;4988973;28;1946;-69
2022/04/03 12:23:36;;;;;;;;;;;20.20;52.90;;;;;;4991560;28;883;-70
2022/04/03 12:26:02;;;;;;;;;;;20.20;52.90;;;;;;4992581;28;888;-69
2022/04/03 12:28:27;;;;;;;;;;;20.20;52.90;;;;;;4990976;28;1311;-69
2022/04/03 12:30:57;;;;;;;;;;;20.10;52.90;;;;;;4975471;28;712;-69
2022/04/03 12:33:22;;;;;;;;;;;20.20;53.00;;;;;;4993221;28;911;-70
2022/04/03 12:35:48;;;;;;;;;;;20.10;52.90;;;;;;4987970;28;1889;-69
2022/04/03 12:38:13;;;;;;;;;;;20.20;53.00;;;;;;4990618;28;1269;-69
2022/04/03 12:40:45;;;;;;;;;;;20.10;53.00;;;;;;4992320;28;2194;-69
2022/04/03 12:43:11;;;;;;;;;;;20.10;53.00;;;;;;4991903;28;1360;-69
2022/04/03 12:45:36;;;;;;;;;;;20.10;53.00;;;;;;4991055;28;2309;-69
2022/04/03 12:48:03;;;;;;;;;;;20.10;53.00;;;;;;4992485;28;1280;-69
2022/04/03 12:50:32;;;;;;;;;;;20.10;53.10;;;;;;4990779;28;1173;-68
2022/04/03 12:52:58;;;;;;;;;;;20.10;53.10;;;;;;4991227;28;1120;-69
2022/04/03 13:01:00;;;;;;;;;;;20.10;53.10;;;;;;4992728;28;2050;-69
2022/04/03 13:03:29;;;;;;;;;;;20.10;53.20;;;;;;4995013;28;1912;-69
2022/04/03 13:05:55;;;;;;;;;;;20.10;53.20;;;;;;4995792;28;1562;-68
2022/04/03 13:08:20;;;;;;;;;;;20.10;53.20;;;;;;4994620;28;1965;-70
2022/04/03 13:10:55;;;;;;;;;;;20.00;53.20;;;;;;4995707;28;1282;-69
2022/04/03 13:13:25;;;;;;;;;;;20.00;53.20;;;;;;4995090;28;1134;-70
2022/04/03 13:15:53;;;;;;;;;;;20.00;53.20;;;;;;4994516;28;1186;-70
2022/04/03 13:18:19;;;;;;;;;;;20.00;53.20;;;;;;4994989;28;1335;-70
2022/04/03 13:20:53;;;;;;;;;;;20.00;53.30;;;;;;4995479;28;1894;-69
2022/04/03 13:23:18;;;;;;;;;;;20.00;53.90;;;;;;4995068;28;875;-69
2022/04/03 13:25:44;;;;;;;;;;;20.00;53.30;;;;;;4994385;28;862;-70
2022/04/03 13:28:10;;;;;;;;;;;20.00;53.30;;;;;;4996361;28;1313;-69
2022/04/03 13:30:35;;;;;;;;;;;20.00;53.40;;;;;;4996167;28;828;-70
2022/04/03 13:33:01;;;;;;;;;;;20.00;53.40;;;;;;4995987;28;763;-69
2022/04/03 13:35:26;;;;;;;;;;;19.90;53.40;;;;;;4995685;28;786;-69
2022/04/03 13:37:53;;;;;;;;;;;19.90;53.40;;;;;;4994589;28;1947;-70
2022/04/03 13:40:18;;;;;;;;;;;19.90;53.40;;;;;;4995486;28;1887;-68
2022/04/03 13:42:43;;;;;;;;;;;19.90;53.40;;;;;;5006803;28;1104;-69
2022/04/03 13:45:09;;;;;;;;;;;19.90;53.50;;;;;;5007333;28;1104;-69
2022/04/03 13:47:34;;;;;;;;;;;19.90;53.50;;;;;;4993572;28;1299;-69
2022/04/03 13:50:00;;;;;;;;;;;19.90;53.50;;;;;;4995626;28;876;-69
2022/04/03 13:52:25;;;;;;;;;;;19.90;53.50;;;;;;4995260;28;857;-69
2022/04/03 13:54:51;;;;;;;;;;;19.90;53.50;;;;;;4995893;28;808;-68
2022/04/03 13:57:16;;;;;;;;;;;19.90;53.60;;;;;;4995066;28;698;-69
2022/04/03 13:59:42;;;;;;;;;;;19.90;53.60;;;;;;4995708;28;1906;-68
2022/04/03 14:02:07;;;;;;;;;;;19.80;53.60;;;;;;4994094;28;851;-69
2022/04/03 14:04:32;;;;;;;;;;;19.80;53.60;;;;;;4994544;28;923;-68
2022/04/03 14:06:58;;;;;;;;;;;19.80;53.60;;;;;;4994700;28;879;-69
2022/04/03 14:09:23;;;;;;;;;;;19.80;53.70;;;;;;4995474;28;1159;-69
2022/04/03 14:11:49;;;;;;;;;;;19.80;53.70;;;;;;4994244;28;1141;-69
2022/04/03 14:14:14;;;;;;;;;;;19.80;53.70;;;;;;4994683;28;905;-69
2022/04/03 14:16:40;;;;;;;;;;;19.80;53.70;;;;;;4994873;28;1069;-68
2022/04/03 14:19:05;;;;;;;;;;;19.80;53.70;;;;;;4995125;28;1212;-68
2022/04/03 14:21:32;;;;;;;;;;;19.80;53.70;;;;;;4994717;28;1894;-69
2022/04/03 14:23:57;;;;;;;;;;;19.80;53.80;;;;;;4994983;28;990;-69
2022/04/03 14:26:23;;;;;;;;;;;19.80;53.80;;;;;;4983467;28;944;-69
2022/04/03 14:28:48;;;;;;;;;;;19.80;53.80;;;;;;4993233;28;1283;-70
2022/04/03 14:31:15;;;;;;;;;;;19.80;53.80;;;;;;4994381;28;737;-70
2022/04/03 14:33:40;;;;;;;;;;;19.70;53.80;;;;;;4993845;28;812;-70